Time;durP1;ratioP1;P1;durP2;ratioP2;P2;SDS_P1;SDS_P2;PMS_P1;PMS_P2;Temp;Humidity;BMP_temperature;BMP_pressure;BME280_temperature;BME280_humidity;BME280_pressure;Samples;Min_cycle;Max_cycle;Signal;HPM_P1;HPM_P2
2022/10/30 00:00:21;;;;;;;1.45;0.35;;;12.10;99.90;;;;;;5052743;28;20049;-74
2022/10/30 00:02:47;;;;;;;3.22;1.50;;;12.10;99.90;;;;;;5052814;28;20093;-74
2022/10/30 00:05:13;;;;;;;3.85;0.70;;;12.10;99.90;;;;;;5051658;28;20083;-75
2022/10/30 00:07:39;;;;;;;1.02;0.32;;;12.00;99.90;;;;;;5034178;28;20318;-73
2022/10/30 00:10:05;;;;;;;0.90;0.82;;;12.10;99.90;;;;;;5054122;28;20076;-75
2022/10/30 00:12:31;;;;;;;1.45;1.35;;;12.10;99.90;;;;;;5054040;28;20086;-74
2022/10/30 00:14:56;;;;;;;0.60;0.60;;;12.00;99.90;;;;;;5053675;28;20029;-75
2022/10/30 00:17:22;;;;;;;0.82;0.32;;;12.00;99.90;;;;;;5052973;28;20036;-75
2022/10/30 00:19:48;;;;;;;1.95;0.90;;;12.00;99.90;;;;;;5053976;28;20055;-73
2022/10/30 00:22:14;;;;;;;1.45;1.23;;;12.00;99.90;;;;;;5054553;28;20562;-74
2022/10/30 00:24:39;;;;;;;1.08;0.98;;;12.00;99.90;;;;;;5056138;28;20049;-73
2022/10/30 00:27:05;;;;;;;2.15;1.45;;;12.00;99.90;;;;;;5053255;28;20037;-73
2022/10/30 00:29:31;;;;;;;0.10;0.10;;;12.00;99.90;;;;;;5057141;28;20411;-74
2022/10/30 00:31:57;;;;;;;0.82;0.60;;;12.00;99.90;;;;;;5054213;28;20091;-74
2022/10/30 00:34:22;;;;;;;1.17;0.63;;;12.10;99.90;;;;;;5055206;28;20047;-74
2022/10/30 00:36:48;;;;;;;1.92;1.33;;;12.00;99.90;;;;;;5054740;28;20041;-75
2022/10/30 00:39:14;;;;;;;2.10;1.42;;;12.00;99.90;;;;;;5055512;28;20073;-73
2022/10/30 00:41:40;;;;;;;0.93;0.80;;;12.00;99.90;;;;;;5056385;28;20101;-73
2022/10/30 00:44:44;;;;;;;1.45;1.00;;;12.00;99.90;;;;;;5052720;28;20129;-73
2022/10/30 00:47:24;;;;;;;0.73;0.73;;;12.00;99.90;;;;;;5054386;28;20123;-75
2022/10/30 00:50:10;;;;;;;4.07;1.67;;;12.00;99.90;;;;;;5055250;28;20041;-75
2022/10/30 00:53:00;;;;;;;13.40;1.43;;;11.90;99.90;;;;;;5053411;28;20056;-74
2022/10/30 00:55:32;;;;;;;3.35;1.65;;;11.90;99.90;;;;;;5041924;28;20057;-76
2022/10/30 00:58:00;;;;;;;2.08;1.00;;;11.90;99.90;;;;;;5036011;28;20411;-74
2022/10/30 01:00:27;;;;;;;0.45;0.45;;;11.80;99.90;;;;;;5054859;28;20376;-73
2022/10/30 01:02:53;;;;;;;1.05;0.85;;;11.80;99.90;;;;;;5055652;28;20037;-75
2022/10/30 01:05:23;;;;;;;1.30;0.75;;;11.80;99.90;;;;;;5053890;28;20048;-74
2022/10/30 01:07:51;;;;;;;10.57;1.20;;;11.80;99.90;;;;;;5053751;28;20087;-75
2022/10/30 01:10:17;;;;;;;0.60;0.57;;;11.80;99.90;;;;;;5055082;28;20120;-75
2022/10/30 01:12:45;;;;;;;1.60;1.45;;;11.80;99.90;;;;;;5057621;28;20053;-73
2022/10/30 01:15:12;;;;;;;1.05;0.77;;;11.80;99.90;;;;;;5055294;28;20100;-75
2022/10/30 01:17:40;;;;;;;1.17;0.93;;;11.80;99.90;;;;;;5054477;28;20201;-74
2022/10/30 01:20:38;;;;;;;1.98;0.65;;;11.80;99.90;;;;;;5054390;28;20049;-75
2022/10/30 01:23:19;;;;;;;1.92;1.23;;;11.80;99.90;;;;;;5029014;28;20052;-73
2022/10/30 01:26:06;;;;;;;0.32;0.32;;;11.80;99.90;;;;;;5055675;28;20048;-73
2022/10/30 01:28:40;;;;;;;2.83;1.58;;;11.90;99.90;;;;;;5055539;28;20053;-75
2022/10/30 01:31:39;;;;;;;0.00;0.00;;;11.80;99.90;;;;;;5056200;28;20084;-75
2022/10/30 01:34:19;;;;;;;2.63;1.58;;;11.90;99.90;;;;;;5056419;28;20049;-73
2022/10/30 01:36:55;;;;;;;1.83;1.70;;;11.90;99.90;;;;;;5055291;28;20053;-74
2022/10/30 01:39:25;;;;;;;1.42;1.27;;;12.00;99.90;;;;;;5055352;28;20053;-75
2022/10/30 01:41:51;;;;;;;0.32;0.32;;;12.00;99.90;;;;;;5053958;28;20049;-76
2022/10/30 01:44:29;;;;;;;1.75;0.73;;;12.00;99.90;;;;;;5054206;28;20083;-74
2022/10/30 01:47:07;;;;;;;5.68;0.32;;;12.00;99.90;;;;;;5055087;28;20048;-75
2022/10/30 01:49:41;;;;;;;3.55;1.60;;;12.10;99.90;;;;;;5055553;28;20112;-74
2022/10/30 01:52:42;;;;;;;1.38;0.93;;;12.00;99.90;;;;;;5054088;28;20517;-76
2022/10/30 01:55:34;;;;;;;0.55;0.55;;;12.00;99.90;;;;;;5033865;28;20083;-74
2022/10/30 01:58:14;;;;;;;5.97;0.80;;;12.00;99.90;;;;;;5034498;28;20045;-75
2022/10/30 02:00:42;;;;;;;1.75;1.10;;;12.00;99.90;;;;;;5033958;28;21076;-74
2022/10/30 02:03:08;;;;;;;0.77;0.73;;;12.00;99.90;;;;;;5051179;28;20037;-76
2022/10/30 02:05:49;;;;;;;0.60;0.60;;;12.00;99.90;;;;;;5053657;28;20049;-74
2022/10/30 02:08:15;;;;;;;0.80;0.77;;;12.00;99.90;;;;;;5053305;28;20045;-75
2022/10/30 02:10:43;;;;;;;1.25;1.08;;;12.00;99.90;;;;;;5050827;28;20487;-74
2022/10/30 02:13:09;;;;;;;1.17;0.82;;;12.30;99.90;;;;;;5051100;28;20056;-75
2022/10/30 02:15:36;;;;;;;3.13;0.85;;;12.00;99.90;;;;;;5050922;28;20053;-74
2022/10/30 02:18:02;;;;;;;0.32;0.32;;;12.00;99.90;;;;;;5052524;28;20133;-74
2022/10/30 02:20:28;;;;;;;3.75;1.25;;;11.90;99.90;;;;;;5049450;28;20106;-73
2022/10/30 02:22:54;;;;;;;2.00;1.10;;;11.80;99.90;;;;;;5050548;28;20036;-74
2022/10/30 02:25:20;;;;;;;0.93;0.77;;;11.80;99.90;;;;;;5050902;28;20049;-73
2022/10/30 02:27:45;;;;;;;2.25;1.35;;;11.90;99.90;;;;;;5050758;28;20045;-76
2022/10/30 02:30:11;;;;;;;1.80;1.25;;;11.90;99.90;;;;;;5049652;28;20048;-75
2022/10/30 02:32:37;;;;;;;0.30;0.25;;;11.80;99.90;;;;;;5050062;28;20567;-75
2022/10/30 02:35:04;;;;;;;10.05;2.38;;;11.80;99.90;;;;;;5050251;28;20076;-74
2022/10/30 02:37:31;;;;;;;2.67;1.60;;;11.80;99.90;;;;;;5048791;28;20048;-74
2022/10/30 02:39:57;;;;;;;2.05;0.85;;;11.80;99.90;;;;;;5049778;28;20052;-74
2022/10/30 02:42:23;;;;;;;1.08;0.98;;;11.80;99.90;;;;;;5049485;28;20159;-73
2022/10/30 02:44:48;;;;;;;1.27;1.02;;;11.70;99.90;;;;;;5032407;28;20060;-74
2022/10/30 02:47:14;;;;;;;0.38;0.38;;;11.70;99.90;;;;;;5051200;28;20048;-74
2022/10/30 02:49:40;;;;;;;1.80;1.38;;;11.70;99.90;;;;;;5050305;28;20036;-74
2022/10/30 02:52:07;;;;;;;0.38;0.28;;;11.70;99.90;;;;;;5048855;28;20085;-74
2022/10/30 02:54:33;;;;;;;0.40;0.40;;;11.60;99.90;;;;;;5049806;28;20040;-75
2022/10/30 02:56:59;;;;;;;1.45;1.13;;;11.60;99.90;;;;;;5049825;28;20048;-73
2022/10/30 02:59:24;;;;;;;0.75;0.47;;;11.60;99.90;;;;;;5051021;28;20044;-75
2022/10/30 03:01:50;;;;;;;1.65;1.15;;;11.50;99.90;;;;;;5065263;28;20037;-75
2022/10/30 03:04:16;;;;;;;0.15;0.13;;;11.60;99.90;;;;;;5061822;28;20041;-76
2022/10/30 03:06:41;;;;;;;2.47;1.40;;;11.50;99.90;;;;;;5033727;28;20048;-74
2022/10/30 03:09:07;;;;;;;1.80;1.38;;;11.50;99.90;;;;;;5058019;28;20041;-75
2022/10/30 03:11:33;;;;;;;0.73;0.68;;;11.50;99.90;;;;;;5053778;28;20606;-74
2022/10/30 03:13:59;;;;;;;3.22;1.58;;;11.80;99.90;;;;;;5053158;28;20045;-74
2022/10/30 03:16:30;;;;;;;0.45;0.38;;;11.50;99.90;;;;;;5051982;28;20052;-75
2022/10/30 03:18:58;;;;;;;0.70;0.70;;;11.50;99.90;;;;;;5049666;28;20037;-74
2022/10/30 03:21:26;;;;;;;0.30;0.30;;;11.50;99.90;;;;;;5050770;28;20111;-73
2022/10/30 03:23:52;;;;;;;1.55;1.15;;;11.50;99.90;;;;;;5051089;28;20075;-74
2022/10/30 03:26:18;;;;;;;2.30;1.45;;;11.50;99.90;;;;;;5034460;28;20051;-76
2022/10/30 03:28:44;;;;;;;0.45;0.45;;;11.40;99.90;;;;;;5050725;28;20568;-75
2022/10/30 03:31:16;;;;;;;0.65;0.55;;;11.40;99.90;;;;;;5050398;28;20044;-74
2022/10/30 03:33:43;;;;;;;1.00;0.75;;;11.40;99.90;;;;;;5033971;28;20037;-75
2022/10/30 03:36:10;;;;;;;0.52;0.40;;;11.40;99.90;;;;;;5051049;28;20070;-75
2022/10/30 03:38:36;;;;;;;2.65;1.67;;;11.40;99.90;;;;;;5052045;28;20088;-73
2022/10/30 03:41:03;;;;;;;7.10;2.22;;;11.40;99.90;;;;;;5051510;28;20041;-75
2022/10/30 03:43:29;;;;;;;0.85;0.60;;;11.40;99.90;;;;;;5049632;28;20470;-73
2022/10/30 03:45:55;;;;;;;1.60;0.75;;;11.40;99.90;;;;;;5051270;28;20075;-75
2022/10/30 03:48:23;;;;;;;1.58;1.10;;;11.40;99.90;;;;;;5050878;28;20040;-75
2022/10/30 03:50:54;;;;;;;2.60;1.55;;;11.40;99.90;;;;;;5050620;28;20558;-75
2022/10/30 03:53:22;;;;;;;1.25;0.95;;;11.40;99.90;;;;;;5050083;28;20059;-75
2022/10/30 03:55:48;;;;;;;1.45;1.35;;;11.30;99.90;;;;;;5033719;28;20046;-75
2022/10/30 03:58:14;;;;;;;2.45;1.15;;;11.40;99.90;;;;;;5031829;28;20566;-75
2022/10/30 04:00:40;;;;;;;1.33;1.13;;;11.40;99.90;;;;;;5044553;28;20083;-74
2022/10/30 04:03:07;;;;;;;3.95;1.48;;;11.40;99.90;;;;;;5051431;28;20033;-75
2022/10/30 04:05:33;;;;;;;4.15;1.70;;;11.30;99.90;;;;;;5047532;28;20042;-75
2022/10/30 04:08:01;;;;;;;2.95;1.60;;;11.30;99.90;;;;;;5037424;28;20116;-75
2022/10/30 04:10:27;;;;;;;2.17;1.58;;;11.30;99.90;;;;;;5057166;28;20053;-75
2022/10/30 04:13:00;;;;;;;0.75;0.60;;;11.30;99.90;;;;;;5061678;28;20044;-75
2022/10/30 04:15:26;;;;;;;0.70;0.70;;;11.30;99.90;;;;;;5040221;28;20068;-74
2022/10/30 04:17:51;;;;;;;0.73;0.60;;;11.30;99.90;;;;;;5042970;28;20055;-72
2022/10/30 04:20:22;;;;;;;1.58;1.25;;;11.30;99.90;;;;;;5057824;28;20041;-74
2022/10/30 04:22:48;;;;;;;1.65;1.45;;;11.30;99.90;;;;;;5059381;28;20045;-73
2022/10/30 04:25:14;;;;;;;0.20;0.20;;;11.30;99.90;;;;;;5058683;28;20122;-73
2022/10/30 04:27:43;;;;;;;1.50;0.88;;;11.30;99.90;;;;;;5058286;28;20033;-73
2022/10/30 04:30:11;;;;;;;3.90;1.83;;;11.30;99.90;;;;;;5058324;28;20044;-73
2022/10/30 04:32:45;;;;;;;0.73;0.65;;;11.30;99.90;;;;;;5037136;28;20100;-73
2022/10/30 04:35:11;;;;;;;0.47;0.47;;;11.30;99.90;;;;;;5052084;28;20041;-73
2022/10/30 04:37:36;;;;;;;4.38;0.90;;;11.30;99.90;;;;;;5038239;28;20097;-74
2022/10/30 04:40:02;;;;;;;2.17;0.75;;;11.20;99.90;;;;;;5055585;28;20041;-74
2022/10/30 04:42:28;;;;;;;2.33;1.92;;;11.20;99.90;;;;;;5058254;28;20049;-74
2022/10/30 04:44:54;;;;;;;0.75;0.60;;;11.20;99.90;;;;;;5057872;28;20057;-74
2022/10/30 04:47:19;;;;;;;0.57;0.25;;;11.20;99.90;;;;;;5056676;28;20037;-74
2022/10/30 04:49:45;;;;;;;1.88;1.63;;;11.20;99.90;;;;;;5056207;28;20358;-73
2022/10/30 04:52:11;;;;;;;1.08;0.95;;;11.20;99.90;;;;;;5058576;28;20048;-74
2022/10/30 04:54:36;;;;;;;3.20;1.63;;;11.20;99.90;;;;;;5058056;28;20041;-74
2022/10/30 04:57:02;;;;;;;0.70;0.70;;;11.20;99.90;;;;;;5056968;28;20087;-74
2022/10/30 04:59:28;;;;;;;1.20;0.95;;;11.20;99.90;;;;;;5054985;28;20059;-75
2022/10/30 05:01:53;;;;;;;0.47;0.47;;;11.20;99.90;;;;;;5059980;28;20041;-74
2022/10/30 05:04:19;;;;;;;0.77;0.77;;;11.30;99.90;;;;;;5056784;28;20698;-75
2022/10/30 05:06:45;;;;;;;1.42;1.33;;;11.30;99.90;;;;;;5060045;28;20041;-73
2022/10/30 05:09:10;;;;;;;0.95;0.88;;;11.20;99.90;;;;;;5056452;28;20131;-74
2022/10/30 05:11:36;;;;;;;1.98;0.68;;;11.20;99.90;;;;;;5057986;28;20037;-74
2022/10/30 05:14:01;;;;;;;2.35;1.38;;;11.20;99.90;;;;;;5056338;28;20412;-74
2022/10/30 05:16:27;;;;;;;0.77;0.60;;;11.30;99.90;;;;;;5055491;28;20044;-73
2022/10/30 05:18:53;;;;;;;1.33;0.50;;;11.30;99.90;;;;;;5057857;28;20048;-74
2022/10/30 05:21:18;;;;;;;0.98;0.88;;;11.30;99.90;;;;;;5057463;28;20053;-74
2022/10/30 05:23:45;;;;;;;1.00;0.98;;;11.30;99.90;;;;;;5057887;28;20053;-74
2022/10/30 05:26:10;;;;;;;3.35;1.23;;;11.80;99.90;;;;;;5057470;28;20056;-75
2022/10/30 05:28:36;;;;;;;1.38;0.88;;;11.40;99.90;;;;;;5060508;28;20041;-74
2022/10/30 05:31:01;;;;;;;6.65;1.38;;;11.50;99.90;;;;;;5059581;28;20399;-75
2022/10/30 05:33:27;;;;;;;1.35;1.02;;;11.50;99.90;;;;;;5059238;28;20048;-73
2022/10/30 05:35:53;;;;;;;1.27;0.63;;;11.50;99.90;;;;;;5057628;28;20073;-74
2022/10/30 05:38:18;;;;;;;0.57;0.57;;;11.10;99.90;;;;;;5058866;28;20384;-74
2022/10/30 05:40:45;;;;;;;3.17;1.42;;;11.50;99.90;;;;;;5058728;28;20051;-75
2022/10/30 05:43:11;;;;;;;4.25;2.13;;;11.40;99.90;;;;;;5059274;28;20037;-73
2022/10/30 05:45:37;;;;;;;0.65;0.60;;;11.40;99.90;;;;;;5026106;28;20052;-72
2022/10/30 05:48:05;;;;;;;4.63;0.75;;;11.40;99.90;;;;;;5057963;28;20045;-75
2022/10/30 05:50:32;;;;;;;0.45;0.43;;;11.40;99.90;;;;;;5057768;28;20041;-73
2022/10/30 05:52:59;;;;;;;1.58;1.33;;;11.40;99.90;;;;;;5059347;28;20384;-73
2022/10/30 05:55:26;;;;;;;2.30;1.27;;;11.40;99.90;;;;;;5055506;28;20056;-74
2022/10/30 05:58:03;;;;;;;0.40;0.40;;;11.40;99.90;;;;;;5055134;28;20506;-73
2022/10/30 06:00:32;;;;;;;12.32;1.88;;;11.40;99.90;;;;;;5054533;28;20049;-73
2022/10/30 06:03:02;;;;;;;0.55;0.52;;;11.30;99.90;;;;;;5057306;28;20047;-74
2022/10/30 06:05:33;;;;;;;0.45;0.38;;;11.30;99.90;;;;;;5051098;28;20044;-74
2022/10/30 06:07:59;;;;;;;0.40;0.35;;;10.50;99.90;;;;;;5055714;28;20044;-73
2022/10/30 06:10:25;;;;;;;1.88;0.57;;;11.10;99.90;;;;;;5053946;28;20056;-73
2022/10/30 06:12:55;;;;;;;1.35;0.68;;;11.10;99.90;;;;;;5057420;28;20048;-75
2022/10/30 06:15:21;;;;;;;1.05;0.93;;;11.00;99.90;;;;;;5055559;28;20049;-75
2022/10/30 06:17:47;;;;;;;2.13;1.55;;;11.00;99.90;;;;;;5056421;28;20387;-72
2022/10/30 06:20:13;;;;;;;2.63;1.05;;;11.00;99.90;;;;;;5056840;28;20040;-74
2022/10/30 06:22:39;;;;;;;1.35;1.25;;;11.00;99.90;;;;;;5052723;28;20037;-73
2022/10/30 06:25:05;;;;;;;3.60;2.03;;;10.90;99.90;;;;;;5055339;28;20082;-73
2022/10/30 06:27:33;;;;;;;0.63;0.63;;;11.00;99.90;;;;;;5056912;28;20049;-74
2022/10/30 06:29:59;;;;;;;1.67;1.48;;;11.00;99.90;;;;;;5035383;28;20545;-73
2022/10/30 06:32:24;;;;;;;2.08;1.08;;;10.90;99.90;;;;;;5054869;28;20045;-75
2022/10/30 06:34:50;;;;;;;6.03;1.95;;;10.90;99.90;;;;;;5059588;28;20049;-72
2022/10/30 06:37:16;;;;;;;3.05;1.33;;;10.90;99.90;;;;;;5054803;28;20402;-75
2022/10/30 06:39:41;;;;;;;2.38;1.67;;;10.90;99.90;;;;;;5055003;28;20080;-73
2022/10/30 06:42:09;;;;;;;5.00;1.55;;;10.90;99.90;;;;;;5054783;28;20045;-75
2022/10/30 06:44:35;;;;;;;0.40;0.40;;;10.80;99.90;;;;;;5056480;28;20548;-74
2022/10/30 06:47:00;;;;;;;1.23;0.77;;;10.90;99.90;;;;;;5055323;28;20037;-75
2022/10/30 06:49:26;;;;;;;1.80;1.35;;;11.00;99.90;;;;;;5056793;28;20037;-75
2022/10/30 06:51:52;;;;;;;0.15;0.15;;;10.90;99.90;;;;;;5058821;28;20041;-74
2022/10/30 06:54:17;;;;;;;5.75;1.75;;;11.00;99.90;;;;;;5057779;28;20029;-75
2022/10/30 06:56:43;;;;;;;2.40;1.52;;;11.00;99.90;;;;;;5055797;28;20430;-74
2022/10/30 06:59:09;;;;;;;1.55;0.63;;;11.00;99.90;;;;;;5055111;28;20036;-74
2022/10/30 07:01:34;;;;;;;3.05;1.17;;;11.10;99.90;;;;;;5055676;28;20045;-73
2022/10/30 07:04:00;;;;;;;0.93;0.77;;;11.10;99.90;;;;;;5039460;28;20075;-75
2022/10/30 07:06:26;;;;;;;1.75;1.30;;;11.20;99.90;;;;;;5056837;28;20041;-74
2022/10/30 07:08:51;;;;;;;3.58;1.35;;;11.30;99.90;;;;;;5055619;28;20048;-75
2022/10/30 07:11:18;;;;;;;1.35;1.17;;;11.40;99.90;;;;;;5058460;28;20068;-74
2022/10/30 07:13:44;;;;;;;4.47;1.17;;;11.40;99.90;;;;;;5056466;28;20057;-75
2022/10/30 07:16:10;;;;;;;1.55;0.90;;;11.50;99.90;;;;;;5055078;28;20121;-75
2022/10/30 07:18:36;;;;;;;7.72;2.53;;;11.50;99.90;;;;;;5055233;28;20076;-74
2022/10/30 07:21:01;;;;;;;1.35;1.25;;;11.60;99.90;;;;;;5058481;28;20071;-73
2022/10/30 07:23:27;;;;;;;0.38;0.35;;;11.60;99.90;;;;;;5057750;28;20052;-74
2022/10/30 07:25:53;;;;;;;3.10;0.63;;;11.60;99.90;;;;;;5060411;28;20037;-75
2022/10/30 07:28:18;;;;;;;1.25;1.05;;;11.70;99.90;;;;;;5056246;28;20045;-75
2022/10/30 07:30:44;;;;;;;0.93;0.73;;;11.70;99.90;;;;;;5058726;28;20044;-74
2022/10/30 07:33:10;;;;;;;1.05;0.75;;;11.70;99.90;;;;;;5057952;28;20623;-75
2022/10/30 07:35:35;;;;;;;0.52;0.52;;;11.80;99.90;;;;;;5045980;28;20048;-75
2022/10/30 07:38:03;;;;;;;1.77;1.45;;;12.70;99.90;;;;;;5053930;28;20041;-76
2022/10/30 07:40:29;;;;;;;2.22;1.88;;;11.90;99.90;;;;;;5059700;28;20041;-75
2022/10/30 07:42:59;;;;;;;0.98;0.93;;;12.90;99.90;;;;;;5060532;28;20711;-75
2022/10/30 07:45:26;;;;;;;4.53;1.17;;;12.00;99.90;;;;;;5060765;28;20072;-74
2022/10/30 07:47:52;;;;;;;1.63;1.00;;;12.00;99.90;;;;;;5060132;28;20041;-73
2022/10/30 07:50:18;;;;;;;1.33;0.98;;;12.00;99.90;;;;;;5058215;28;20029;-75
2022/10/30 07:52:44;;;;;;;1.63;0.98;;;12.10;99.90;;;;;;5060017;28;20041;-75
2022/10/30 07:55:09;;;;;;;5.60;2.42;;;12.20;99.90;;;;;;5042448;28;20056;-75
2022/10/30 07:57:36;;;;;;;1.33;1.23;;;12.30;99.90;;;;;;5060767;28;20151;-73
2022/10/30 08:00:08;;;;;;;2.80;0.93;;;12.30;99.90;;;;;;5019595;28;20083;-75
2022/10/30 08:02:34;;;;;;;6.28;2.75;;;12.40;99.90;;;;;;5055368;28;20950;-75
2022/10/30 08:05:00;;;;;;;1.77;1.33;;;12.40;99.90;;;;;;5058390;28;20052;-75
2022/10/30 08:07:30;;;;;;;8.90;2.13;;;12.40;99.90;;;;;;5059526;28;20044;-76
2022/10/30 08:09:56;;;;;;;0.70;0.55;;;12.50;99.90;;;;;;5056325;28;20601;-75
2022/10/30 08:12:21;;;;;;;2.47;1.95;;;12.50;99.90;;;;;;5059336;28;20083;-75
2022/10/30 08:14:48;;;;;;;1.05;0.80;;;12.50;99.90;;;;;;5060409;28;20060;-75
2022/10/30 08:17:13;;;;;;;1.20;1.10;;;12.70;99.90;;;;;;5060702;28;20693;-76
2022/10/30 08:19:39;;;;;;;0.90;0.85;;;12.60;99.90;;;;;;5059653;28;20076;-76
2022/10/30 08:22:05;;;;;;;0.10;0.10;;;12.70;99.90;;;;;;5061761;28;20064;-75
2022/10/30 08:24:30;;;;;;;0.98;0.50;;;12.70;99.90;;;;;;5059282;28;20509;-76
2022/10/30 08:26:56;;;;;;;0.68;0.68;;;13.00;99.90;;;;;;5059888;28;20194;-75
2022/10/30 08:29:22;;;;;;;0.73;0.73;;;12.90;99.90;;;;;;5062478;28;20041;-74
2022/10/30 08:31:48;;;;;;;3.20;2.90;;;12.90;99.90;;;;;;5041167;28;20076;-74
2022/10/30 08:34:14;;;;;;;3.42;2.17;;;13.00;99.90;;;;;;5058411;28;20037;-76
2022/10/30 08:36:40;;;;;;;1.35;1.25;;;13.10;99.90;;;;;;5058356;28;20076;-76
2022/10/30 08:39:05;;;;;;;2.13;1.58;;;13.20;99.90;;;;;;5059101;28;20567;-75
2022/10/30 08:41:31;;;;;;;2.25;1.73;;;13.20;99.90;;;;;;5057257;28;20069;-73
2022/10/30 08:43:57;;;;;;;2.13;1.45;;;13.30;99.90;;;;;;5056643;28;20075;-75
2022/10/30 08:46:22;;;;;;;2.60;1.60;;;13.40;99.90;;;;;;5059249;28;20144;-74
2022/10/30 08:48:48;;;;;;;9.32;1.75;;;13.50;99.90;;;;;;5063527;28;20048;-73
2022/10/30 08:51:14;;;;;;;2.85;1.15;;;13.60;99.90;;;;;;5056632;28;20033;-73
2022/10/30 08:53:39;;;;;;;1.98;1.40;;;13.60;99.90;;;;;;5058852;28;20068;-75
2022/10/30 08:56:05;;;;;;;6.80;1.73;;;13.70;99.90;;;;;;5058867;28;20080;-76
2022/10/30 08:58:31;;;;;;;2.17;1.70;;;13.70;99.90;;;;;;5061037;28;20045;-75
2022/10/30 09:00:56;;;;;;;1.42;1.33;;;13.70;99.90;;;;;;5062113;28;20021;-74
2022/10/30 09:03:22;;;;;;;2.10;1.17;;;13.80;99.90;;;;;;5061700;28;20460;-75
2022/10/30 09:05:48;;;;;;;2.33;1.70;;;14.00;99.90;;;;;;5059416;28;20049;-75
2022/10/30 09:08:14;;;;;;;0.95;0.88;;;14.00;99.90;;;;;;5058242;28;20148;-75
2022/10/30 09:10:40;;;;;;;1.38;1.27;;;14.10;99.90;;;;;;5057257;28;20071;-75
2022/10/30 09:13:06;;;;;;;1.58;1.48;;;14.10;99.90;;;;;;5058391;28;20844;-76
2022/10/30 09:15:32;;;;;;;3.10;1.73;;;14.20;99.90;;;;;;5058785;28;20041;-74
2022/10/30 09:17:59;;;;;;;18.17;2.03;;;14.30;99.90;;;;;;5057858;28;20396;-75
2022/10/30 09:20:26;;;;;;;0.57;0.32;;;14.30;99.90;;;;;;5056751;28;20048;-75
2022/10/30 09:22:52;;;;;;;2.67;1.63;;;14.40;99.90;;;;;;5058591;28;20052;-75
2022/10/30 09:25:18;;;;;;;3.25;2.13;;;14.50;99.90;;;;;;5054673;28;20037;-75
2022/10/30 09:27:43;;;;;;;1.65;0.95;;;14.60;99.90;;;;;;5048986;28;20047;-73
2022/10/30 09:30:10;;;;;;;16.45;1.25;;;14.60;99.90;;;;;;5058352;28;20064;-74
2022/10/30 09:32:36;;;;;;;2.28;1.60;;;14.70;99.90;;;;;;5056213;28;20049;-73
2022/10/30 09:35:02;;;;;;;2.08;1.52;;;14.80;99.90;;;;;;5057013;28;20445;-76
2022/10/30 09:37:27;;;;;;;3.25;1.98;;;14.90;99.90;;;;;;5058572;28;20064;-76
2022/10/30 09:39:53;;;;;;;1.63;1.38;;;15.00;99.90;;;;;;5058076;28;20049;-76
2022/10/30 09:42:35;;;;;;;0.88;0.85;;;15.10;99.90;;;;;;5058029;28;20064;-75
2022/10/30 09:45:43;;;;;;;2.50;1.92;;;15.20;99.90;;;;;;5058483;28;20044;-74
2022/10/30 09:48:35;;;;;;;2.97;2.67;;;15.30;99.90;;;;;;5051052;28;20048;-75
2022/10/30 09:51:30;;;;;;;26.20;3.85;;;15.40;99.90;;;;;;5055230;28;20106;-76
2022/10/30 09:54:18;;;;;;;2.05;1.42;;;15.50;99.90;;;;;;5059485;28;20052;-75
2022/10/30 09:56:50;;;;;;;1.05;0.77;;;15.60;99.90;;;;;;5061268;28;20045;-76
2022/10/30 09:59:29;;;;;;;1.00;0.90;;;15.80;99.90;;;;;;5058124;28;20051;-74
2022/10/30 10:02:32;;;;;;;1.35;0.95;;;16.10;99.90;;;;;;5060701;28;20053;-76
2022/10/30 10:05:05;;;;;;;0.90;0.75;;;16.30;99.90;;;;;;5042795;28;20049;-77
2022/10/30 10:07:46;;;;;;;0.73;0.70;;;16.60;99.90;;;;;;5059140;28;20090;-77
2022/10/30 10:10:37;;;;;;;3.78;2.58;;;16.80;99.90;;;;;;5042091;28;20608;-77
2022/10/30 10:13:12;;;;;;;22.45;2.80;;;17.10;99.90;;;;;;5029979;28;20061;-76
2022/10/30 10:15:47;;;;;;;1.30;0.75;;;17.50;99.90;;;;;;5029343;28;20127;-76
2022/10/30 10:18:19;;;;;;;0.93;0.63;;;17.70;99.90;;;;;;5030652;28;20037;-77
2022/10/30 10:20:48;;;;;;;0.68;0.60;;;17.70;99.90;;;;;;5052933;28;20045;-76
2022/10/30 10:23:23;;;;;;;1.17;1.02;;;18.00;99.90;;;;;;5051393;28;20052;-75
2022/10/30 10:25:53;;;;;;;2.33;1.50;;;18.10;99.90;;;;;;5049283;28;20041;-76
2022/10/30 10:28:46;;;;;;;35.90;2.08;;;18.30;99.90;;;;;;5038981;28;20100;-75
2022/10/30 10:31:38;;;;;;;1.65;1.50;;;18.30;99.90;;;;;;5039900;28;20585;-76
2022/10/30 10:34:56;;;;;;;1.02;0.57;;;18.40;99.90;;;;;;5049735;28;20071;-74
2022/10/30 10:37:34;;;;;;;;;;;18.50;99.90;;;;;;5022655;28;20052;-77
2022/10/30 10:40:25;;;;;;;2.50;1.30;;;18.50;81.90;;;;;;5056010;28;19980;-77
2022/10/30 10:43:09;;;;;;;0.35;0.32;;;18.50;1.00;;;;;;5053605;28;20059;-75
2022/10/30 10:46:04;;;;;;;0.90;0.73;;;18.50;99.90;;;;;;5048409;28;20132;-76
2022/10/30 10:48:59;;;;;;;1.13;0.82;;;18.50;99.90;;;;;;5049248;28;20048;-75
2022/10/30 10:51:41;;;;;;;1.95;1.70;;;18.50;39.30;;;;;;5056883;28;20055;-77
2022/10/30 10:54:15;;;;;;;1.02;0.93;;;18.60;99.90;;;;;;5063316;28;20053;-76
2022/10/30 10:56:43;;;;;;;0.40;0.40;;;18.80;99.90;;;;;;5060070;28;20088;-75
2022/10/30 10:59:15;;;;;;;1.20;0.65;;;19.00;99.90;;;;;;5043534;28;20049;-76
2022/10/30 11:01:48;;;;;;;1.15;0.98;;;19.00;99.90;;;;;;5040757;28;20499;-76
2022/10/30 11:04:25;;;;;;;2.25;0.70;;;19.10;1.00;;;;;;5040661;28;20140;-75
2022/10/30 11:06:53;;;;;;;1.20;0.75;;;19.20;99.90;;;;;;5043417;28;20057;-76
2022/10/30 11:09:21;;;;;;;13.18;2.67;;;19.30;99.90;;;;;;5045300;28;20061;-78
2022/10/30 11:11:52;;;;;;;1.52;1.15;;;19.50;99.90;;;;;;5047033;28;20053;-77
2022/10/30 11:14:27;;;;;;;0.73;0.60;;;19.60;99.90;;;;;;5046947;28;20120;-76
2022/10/30 11:17:18;;;;;;;1.83;0.80;;;19.70;99.90;;;;;;5060113;28;20100;-74
2022/10/30 11:19:47;;;;;;;1.60;0.95;;;19.70;1.00;;;;;;5060947;28;20076;-77
2022/10/30 11:22:26;;;;;;;0.82;0.82;;;19.90;86.60;;;;;;5062222;28;20079;-77
2022/10/30 11:24:51;;;;;;;2.15;0.88;;;20.00;99.90;;;;;;5042841;28;20074;-76
2022/10/30 11:27:23;;;;;;;1.67;0.63;;;20.10;99.90;;;;;;5058940;28;20689;-77
2022/10/30 11:29:58;;;;;;;5.32;1.45;;;20.30;1.00;;;;;;5058736;28;20101;-77
2022/10/30 11:32:29;;;;;;;1.37;1.27;;;20.40;99.90;;;;;;5057269;28;20041;-77
2022/10/30 11:35:08;;;;;;;3.10;0.93;;;20.50;35.10;;;;;;5059234;28;20045;-78
2022/10/30 11:37:36;;;;;;;0.45;0.38;;;20.70;99.60;;;;;;5041601;28;20044;-77
2022/10/30 11:40:10;;;;;;;1.25;0.85;;;20.60;99.90;;;;;;5059687;28;20106;-76
2022/10/30 11:42:47;;;;;;;1.20;0.90;;;20.70;99.90;;;;;;5061525;28;20177;-77
2022/10/30 11:45:29;;;;;;;0.68;0.65;;;20.80;99.90;;;;;;5065812;28;20029;-78
2022/10/30 11:47:57;;;;;;;7.00;1.48;;;21.10;99.90;;;;;;5063643;28;20048;-78
2022/10/30 11:50:33;;;;;;;1.85;1.23;;;20.90;43.70;;;;;;5064690;28;20037;-78
2022/10/30 11:53:12;;;;;;;1.83;0.77;;;20.90;99.90;;;;;;5065546;28;20029;-78
2022/10/30 11:55:43;;;;;;;0.55;0.52;;;20.90;99.90;;;;;;5045568;28;20045;-77
2022/10/30 11:58:27;;;;;;;2.75;1.27;;;20.80;1.00;;;;;;5057691;28;20052;-76
2022/10/30 12:01:22;;;;;;;1.48;1.38;;;20.80;99.90;;;;;;5060000;28;20048;-77
2022/10/30 12:03:49;;;;;;;1.15;0.93;;;20.90;1.00;;;;;;5030755;28;20057;-77
2022/10/30 12:06:24;;;;;;;1.10;1.00;;;21.00;99.90;;;;;;5057804;28;20048;-77
2022/10/30 12:09:21;;;;;;;1.02;0.90;;;21.30;1.00;;;;;;5058092;28;20073;-78
2022/10/30 12:11:47;;;;;;;0.75;0.75;;;21.70;1.00;;;;;;5063346;28;20065;-77
2022/10/30 12:14:26;;;;;;;2.03;1.02;;;21.40;1.00;;;;;;5063003;28;20061;-78
2022/10/30 12:16:54;;;;;;;5.80;1.13;;;21.60;99.90;;;;;;5061708;28;20049;-77
2022/10/30 12:19:31;;;;;;;1.45;0.47;;;22.00;7.50;;;;;;5042646;28;20053;-77
2022/10/30 12:21:57;;;;;;;1.23;0.68;;;21.80;1.00;;;;;;5060716;28;20048;-77
2022/10/30 12:24:26;;;;;;;3.28;0.95;;;21.40;1.00;;;;;;5060499;28;20048;-75
2022/10/30 12:26:54;;;;;;;1.65;0.55;;;21.20;18.20;;;;;;5039870;28;20045;-77
2022/10/30 12:29:28;;;;;;;2.13;0.80;;;21.10;99.90;;;;;;5062057;28;20045;-77
2022/10/30 12:32:04;;;;;;;0.38;0.38;;;21.00;99.90;;;;;;5061563;28;20056;-78
2022/10/30 12:34:37;;;;;;;1.50;0.82;;;21.40;99.90;;;;;;5062596;28;20048;-77
2022/10/30 12:37:18;;;;;;;2.47;1.30;;;21.00;22.30;;;;;;5063485;28;20558;-77
2022/10/30 12:40:18;;;;;;;0.60;0.40;;;21.00;1.00;;;;;;5064333;28;20045;-77
2022/10/30 12:43:01;;;;;;;5.22;1.58;;;21.00;1.00;;;;;;5067574;28;20052;-77
2022/10/30 12:45:31;;;;;;;0.13;0.10;;;20.70;28.60;;;;;;5063546;28;20037;-77
2022/10/30 12:48:07;;;;;;;0.68;0.57;;;20.60;48.20;;;;;;5064094;28;20045;-77
2022/10/30 12:50:52;;;;;;;0.40;0.40;;;20.60;99.90;;;;;;5065158;28;20068;-76
2022/10/30 12:53:26;;;;;;;2.17;1.23;;;20.60;67.00;;;;;;5061569;28;20052;-77
2022/10/30 12:55:59;;;;;;;20.65;2.58;;;20.60;99.90;;;;;;5064045;28;20133;-75
2022/10/30 12:58:35;;;;;;;1.30;0.75;;;20.60;90.10;;;;;;5061996;28;20113;-76
2022/10/30 13:01:23;;;;;;;0.57;0.57;;;20.60;90.60;;;;;;5061973;28;20053;-76
2022/10/30 13:03:56;;;;;;;0.63;0.55;;;20.50;99.90;;;;;;5058577;28;20053;-76